sensor_id;sensor_type;location;lat;lon;timestamp;P1;durP1;ratioP1;P2;durP2;ratioP2
20908;SDS011;10614;53.198;6.570;2023-05-16T00:00:20;18.35;;;3.13;;
20908;SDS011;10614;53.198;6.570;2023-05-16T00:02:27;16.98;;;3.15;;
20908;SDS011;10614;53.198;6.570;2023-05-16T00:04:29;17.42;;;3.30;;
20908;SDS011;10614;53.198;6.570;2023-05-16T00:06:32;15.00;;;3.30;;
20908;SDS011;10614;53.198;6.570;2023-05-16T00:08:35;18.50;;;3.30;;
20908;SDS011;10614;53.198;6.570;2023-05-16T00:10:37;16.95;;;2.90;;
20908;SDS011;10614;53.198;6.570;2023-05-16T00:12:42;16.05;;;3.13;;
20908;SDS011;10614;53.198;6.570;2023-05-16T00:14:45;19.17;;;3.05;;
20908;SDS011;10614;53.198;6.570;2023-05-16T00:16:49;17.70;;;2.75;;
20908;SDS011;10614;53.198;6.570;2023-05-16T00:18:50;19.05;;;3.00;;
20908;SDS011;10614;53.198;6.570;2023-05-16T00:20:52;22.63;;;3.40;;
20908;SDS011;10614;53.198;6.570;2023-05-16T00:22:55;17.23;;;3.05;;
20908;SDS011;10614;53.198;6.570;2023-05-16T00:25:00;22.50;;;3.63;;
20908;SDS011;10614;53.198;6.570;2023-05-16T00:27:01;21.60;;;2.55;;
20908;SDS011;10614;53.198;6.570;2023-05-16T00:29:06;14.00;;;2.90;;
20908;SDS011;10614;53.198;6.570;2023-05-16T00:31:08;19.02;;;2.88;;
20908;SDS011;10614;53.198;6.570;2023-05-16T00:33:09;17.70;;;3.08;;
20908;SDS011;10614;53.198;6.570;2023-05-16T00:35:11;18.95;;;3.00;;
20908;SDS011;10614;53.198;6.570;2023-05-16T00:37:13;19.77;;;2.63;;
20908;SDS011;10614;53.198;6.570;2023-05-16T00:39:15;21.38;;;3.03;;
20908;SDS011;10614;53.198;6.570;2023-05-16T00:41:17;18.55;;;2.80;;
20908;SDS011;10614;53.198;6.570;2023-05-16T00:43:19;16.40;;;2.63;;
20908;SDS011;10614;53.198;6.570;2023-05-16T00:45:22;17.92;;;2.80;;
20908;SDS011;10614;53.198;6.570;2023-05-16T00:47:25;24.97;;;3.27;;
20908;SDS011;10614;53.198;6.570;2023-05-16T00:49:28;23.65;;;3.13;;
20908;SDS011;10614;53.198;6.570;2023-05-16T00:51:30;20.35;;;3.10;;
20908;SDS011;10614;53.198;6.570;2023-05-16T00:53:32;17.60;;;2.65;;
20908;SDS011;10614;53.198;6.570;2023-05-16T00:55:33;15.75;;;2.95;;
20908;SDS011;10614;53.198;6.570;2023-05-16T00:57:36;18.33;;;2.80;;
20908;SDS011;10614;53.198;6.570;2023-05-16T00:59:37;22.00;;;3.15;;
20908;SDS011;10614;53.198;6.570;2023-05-16T01:01:43;19.10;;;2.42;;
20908;SDS011;10614;53.198;6.570;2023-05-16T01:03:47;20.98;;;2.67;;
20908;SDS011;10614;53.198;6.570;2023-05-16T01:05:49;24.05;;;3.25;;
20908;SDS011;10614;53.198;6.570;2023-05-16T01:07:52;15.57;;;2.60;;
20908;SDS011;10614;53.198;6.570;2023-05-16T01:09:54;13.82;;;2.58;;
20908;SDS011;10614;53.198;6.570;2023-05-16T01:11:59;17.00;;;2.67;;
20908;SDS011;10614;53.198;6.570;2023-05-16T01:14:10;18.40;;;2.65;;
20908;SDS011;10614;53.198;6.570;2023-05-16T01:16:18;12.35;;;2.75;;
20908;SDS011;10614;53.198;6.570;2023-05-16T01:18:33;14.88;;;2.92;;
20908;SDS011;10614;53.198;6.570;2023-05-16T01:20:42;16.60;;;2.55;;
20908;SDS011;10614;53.198;6.570;2023-05-16T01:22:51;22.30;;;2.70;;
20908;SDS011;10614;53.198;6.570;2023-05-16T01:25:10;15.00;;;2.50;;
20908;SDS011;10614;53.198;6.570;2023-05-16T01:27:28;14.85;;;2.22;;
20908;SDS011;10614;53.198;6.570;2023-05-16T01:29:30;15.52;;;2.72;;
20908;SDS011;10614;53.198;6.570;2023-05-16T01:31:32;21.55;;;3.13;;
20908;SDS011;10614;53.198;6.570;2023-05-16T01:33:34;17.30;;;2.95;;
20908;SDS011;10614;53.198;6.570;2023-05-16T01:35:37;15.60;;;3.22;;
20908;SDS011;10614;53.198;6.570;2023-05-16T01:37:46;16.38;;;3.15;;
20908;SDS011;10614;53.198;6.570;2023-05-16T01:39:54;16.48;;;2.63;;
20908;SDS011;10614;53.198;6.570;2023-05-16T01:42:00;23.17;;;2.40;;
20908;SDS011;10614;53.198;6.570;2023-05-16T01:44:07;14.15;;;2.67;;
20908;SDS011;10614;53.198;6.570;2023-05-16T01:46:18;16.50;;;2.70;;
20908;SDS011;10614;53.198;6.570;2023-05-16T01:48:22;14.80;;;2.70;;
20908;SDS011;10614;53.198;6.570;2023-05-16T01:50:31;19.45;;;3.05;;
20908;SDS011;10614;53.198;6.570;2023-05-16T01:52:37;16.65;;;2.97;;
20908;SDS011;10614;53.198;6.570;2023-05-16T01:54:44;20.10;;;3.30;;
20908;SDS011;10614;53.198;6.570;2023-05-16T01:56:50;21.20;;;3.35;;
20908;SDS011;10614;53.198;6.570;2023-05-16T01:58:53;12.90;;;2.65;;
20908;SDS011;10614;53.198;6.570;2023-05-16T02:01:00;18.10;;;2.90;;
20908;SDS011;10614;53.198;6.570;2023-05-16T02:03:03;15.45;;;2.67;;
20908;SDS011;10614;53.198;6.570;2023-05-16T02:05:05;16.88;;;2.92;;
20908;SDS011;10614;53.198;6.570;2023-05-16T02:07:08;16.92;;;3.00;;
20908;SDS011;10614;53.198;6.570;2023-05-16T02:09:10;16.30;;;2.67;;
20908;SDS011;10614;53.198;6.570;2023-05-16T02:11:12;13.40;;;2.83;;
20908;SDS011;10614;53.198;6.570;2023-05-16T02:13:14;18.13;;;2.97;;
20908;SDS011;10614;53.198;6.570;2023-05-16T02:15:16;15.55;;;2.88;;
20908;SDS011;10614;53.198;6.570;2023-05-16T02:17:19;15.63;;;2.92;;
20908;SDS011;10614;53.198;6.570;2023-05-16T02:19:21;15.63;;;2.92;;
20908;SDS011;10614;53.198;6.570;2023-05-16T02:21:23;14.15;;;2.65;;
20908;SDS011;10614;53.198;6.570;2023-05-16T02:23:25;15.30;;;2.90;;
20908;SDS011;10614;53.198;6.570;2023-05-16T02:25:27;20.95;;;3.03;;
20908;SDS011;10614;53.198;6.570;2023-05-16T02:27:29;20.23;;;4.32;;
20908;SDS011;10614;53.198;6.570;2023-05-16T02:29:31;19.50;;;4.00;;
20908;SDS011;10614;53.198;6.570;2023-05-16T02:31:33;25.08;;;3.22;;
20908;SDS011;10614;53.198;6.570;2023-05-16T02:33:37;23.38;;;3.78;;
20908;SDS011;10614;53.198;6.570;2023-05-16T02:35:38;15.45;;;3.00;;
20908;SDS011;10614;53.198;6.570;2023-05-16T02:37:40;19.00;;;3.78;;
20908;SDS011;10614;53.198;6.570;2023-05-16T02:39:42;16.63;;;3.22;;
20908;SDS011;10614;53.198;6.570;2023-05-16T02:41:45;18.10;;;3.13;;
20908;SDS011;10614;53.198;6.570;2023-05-16T02:43:47;13.15;;;3.30;;
20908;SDS011;10614;53.198;6.570;2023-05-16T02:45:49;15.45;;;2.97;;
20908;SDS011;10614;53.198;6.570;2023-05-16T02:47:52;19.50;;;3.15;;
20908;SDS011;10614;53.198;6.570;2023-05-16T02:49:55;17.33;;;3.60;;
20908;SDS011;10614;53.198;6.570;2023-05-16T02:51:57;13.55;;;3.17;;
20908;SDS011;10614;53.198;6.570;2023-05-16T02:53:58;23.10;;;4.25;;
20908;SDS011;10614;53.198;6.570;2023-05-16T02:56:00;15.20;;;3.00;;
20908;SDS011;10614;53.198;6.570;2023-05-16T02:58:05;15.38;;;3.20;;
20908;SDS011;10614;53.198;6.570;2023-05-16T03:00:08;25.60;;;3.83;;
20908;SDS011;10614;53.198;6.570;2023-05-16T03:02:11;23.75;;;3.58;;
20908;SDS011;10614;53.198;6.570;2023-05-16T03:04:13;12.07;;;3.13;;
20908;SDS011;10614;53.198;6.570;2023-05-16T03:06:17;14.48;;;3.10;;
20908;SDS011;10614;53.198;6.570;2023-05-16T03:08:19;24.42;;;4.05;;
20908;SDS011;10614;53.198;6.570;2023-05-16T03:10:21;15.13;;;3.40;;
20908;SDS011;10614;53.198;6.570;2023-05-16T03:12:22;18.45;;;3.75;;
20908;SDS011;10614;53.198;6.570;2023-05-16T03:14:25;20.20;;;3.78;;
20908;SDS011;10614;53.198;6.570;2023-05-16T03:16:27;23.13;;;3.45;;
20908;SDS011;10614;53.198;6.570;2023-05-16T03:18:28;21.00;;;4.35;;
20908;SDS011;10614;53.198;6.570;2023-05-16T03:20:30;21.35;;;3.33;;
20908;SDS011;10614;53.198;6.570;2023-05-16T03:22:33;17.92;;;3.45;;
20908;SDS011;10614;53.198;6.570;2023-05-16T03:24:35;13.68;;;2.78;;
20908;SDS011;10614;53.198;6.570;2023-05-16T03:26:37;17.10;;;3.13;;
20908;SDS011;10614;53.198;6.570;2023-05-16T03:28:40;20.60;;;4.00;;
20908;SDS011;10614;53.198;6.570;2023-05-16T03:30:41;13.98;;;3.03;;
20908;SDS011;10614;53.198;6.570;2023-05-16T03:32:44;18.42;;;3.75;;
20908;SDS011;10614;53.198;6.570;2023-05-16T03:34:45;13.65;;;3.40;;
20908;SDS011;10614;53.198;6.570;2023-05-16T03:36:47;19.88;;;3.72;;
20908;SDS011;10614;53.198;6.570;2023-05-16T03:38:51;17.05;;;3.38;;
20908;SDS011;10614;53.198;6.570;2023-05-16T03:40:52;17.70;;;3.50;;
20908;SDS011;10614;53.198;6.570;2023-05-16T03:42:54;14.80;;;3.85;;
20908;SDS011;10614;53.198;6.570;2023-05-16T03:44:56;18.35;;;2.95;;
20908;SDS011;10614;53.198;6.570;2023-05-16T03:46:58;16.95;;;3.05;;
20908;SDS011;10614;53.198;6.570;2023-05-16T03:48:59;17.20;;;2.90;;
20908;SDS011;10614;53.198;6.570;2023-05-16T03:51:02;22.77;;;3.55;;
20908;SDS011;10614;53.198;6.570;2023-05-16T03:53:03;20.48;;;3.22;;
20908;SDS011;10614;53.198;6.570;2023-05-16T03:55:07;19.52;;;2.88;;
20908;SDS011;10614;53.198;6.570;2023-05-16T03:57:09;21.70;;;3.10;;
20908;SDS011;10614;53.198;6.570;2023-05-16T03:59:11;18.33;;;3.42;;
20908;SDS011;10614;53.198;6.570;2023-05-16T04:01:13;15.95;;;2.95;;
20908;SDS011;10614;53.198;6.570;2023-05-16T04:03:15;19.20;;;2.65;;
20908;SDS011;10614;53.198;6.570;2023-05-16T04:05:17;13.63;;;2.92;;
20908;SDS011;10614;53.198;6.570;2023-05-16T04:07:18;15.48;;;3.00;;
20908;SDS011;10614;53.198;6.570;2023-05-16T04:09:21;24.10;;;3.65;;
20908;SDS011;10614;53.198;6.570;2023-05-16T04:11:25;14.82;;;2.85;;
20908;SDS011;10614;53.198;6.570;2023-05-16T04:13:26;13.45;;;3.40;;
20908;SDS011;10614;53.198;6.570;2023-05-16T04:15:28;14.55;;;2.97;;
20908;SDS011;10614;53.198;6.570;2023-05-16T04:17:30;17.05;;;3.78;;
20908;SDS011;10614;53.198;6.570;2023-05-16T04:19:32;19.17;;;3.13;;
20908;SDS011;10614;53.198;6.570;2023-05-16T04:21:34;15.18;;;2.75;;
20908;SDS011;10614;53.198;6.570;2023-05-16T04:23:36;14.75;;;3.03;;
20908;SDS011;10614;53.198;6.570;2023-05-16T04:25:37;20.38;;;3.75;;
20908;SDS011;10614;53.198;6.570;2023-05-16T04:27:41;14.07;;;2.60;;
20908;SDS011;10614;53.198;6.570;2023-05-16T04:29:43;15.88;;;3.40;;
20908;SDS011;10614;53.198;6.570;2023-05-16T04:31:46;20.38;;;3.33;;
20908;SDS011;10614;53.198;6.570;2023-05-16T04:33:48;12.43;;;3.35;;
20908;SDS011;10614;53.198;6.570;2023-05-16T04:35:49;17.48;;;3.17;;
20908;SDS011;10614;53.198;6.570;2023-05-16T04:37:52;18.95;;;3.42;;
20908;SDS011;10614;53.198;6.570;2023-05-16T04:39:53;16.92;;;3.13;;
20908;SDS011;10614;53.198;6.570;2023-05-16T04:41:55;14.15;;;2.90;;
20908;SDS011;10614;53.198;6.570;2023-05-16T04:44:00;18.33;;;3.28;;
20908;SDS011;10614;53.198;6.570;2023-05-16T04:48:06;13.43;;;3.30;;
20908;SDS011;10614;53.198;6.570;2023-05-16T04:50:09;14.25;;;3.63;;
20908;SDS011;10614;53.198;6.570;2023-05-16T04:52:11;11.82;;;3.13;;
20908;SDS011;10614;53.198;6.570;2023-05-16T04:54:13;14.32;;;4.03;;
20908;SDS011;10614;53.198;6.570;2023-05-16T04:56:16;16.75;;;3.42;;
20908;SDS011;10614;53.198;6.570;2023-05-16T04:58:19;10.57;;;3.75;;
20908;SDS011;10614;53.198;6.570;2023-05-16T05:00:24;21.95;;;4.00;;
20908;SDS011;10614;53.198;6.570;2023-05-16T05:02:26;11.45;;;3.10;;
20908;SDS011;10614;53.198;6.570;2023-05-16T05:04:28;18.90;;;3.83;;
20908;SDS011;10614;53.198;6.570;2023-05-16T05:06:30;12.27;;;3.20;;
20908;SDS011;10614;53.198;6.570;2023-05-16T05:08:32;19.77;;;3.47;;
20908;SDS011;10614;53.198;6.570;2023-05-16T05:10:34;16.25;;;3.45;;
20908;SDS011;10614;53.198;6.570;2023-05-16T05:12:36;16.02;;;3.60;;
20908;SDS011;10614;53.198;6.570;2023-05-16T05:14:38;14.52;;;3.30;;
20908;SDS011;10614;53.198;6.570;2023-05-16T05:16:41;21.45;;;3.95;;
20908;SDS011;10614;53.198;6.570;2023-05-16T05:18:43;15.25;;;2.70;;
20908;SDS011;10614;53.198;6.570;2023-05-16T05:20:45;17.30;;;3.65;;
20908;SDS011;10614;53.198;6.570;2023-05-16T05:22:47;15.73;;;3.10;;
20908;SDS011;10614;53.198;6.570;2023-05-16T05:24:48;16.02;;;3.55;;
20908;SDS011;10614;53.198;6.570;2023-05-16T05:26:51;14.82;;;3.30;;
20908;SDS011;10614;53.198;6.570;2023-05-16T05:28:52;10.95;;;3.47;;
20908;SDS011;10614;53.198;6.570;2023-05-16T05:30:54;18.55;;;3.47;;
20908;SDS011;10614;53.198;6.570;2023-05-16T05:32:59;13.75;;;3.95;;
20908;SDS011;10614;53.198;6.570;2023-05-16T05:35:05;23.42;;;3.33;;
20908;SDS011;10614;53.198;6.570;2023-05-16T05:37:08;11.27;;;2.95;;
20908;SDS011;10614;53.198;6.570;2023-05-16T05:39:09;18.15;;;3.63;;
20908;SDS011;10614;53.198;6.570;2023-05-16T05:41:12;12.60;;;3.25;;
20908;SDS011;10614;53.198;6.570;2023-05-16T05:43:14;21.35;;;3.40;;
20908;SDS011;10614;53.198;6.570;2023-05-16T05:45:16;14.40;;;2.65;;
20908;SDS011;10614;53.198;6.570;2023-05-16T05:47:18;16.35;;;3.60;;
20908;SDS011;10614;53.198;6.570;2023-05-16T05:49:22;14.35;;;2.75;;
20908;SDS011;10614;53.198;6.570;2023-05-16T05:51:24;11.25;;;2.65;;
20908;SDS011;10614;53.198;6.570;2023-05-16T05:53:26;17.23;;;2.60;;
20908;SDS011;10614;53.198;6.570;2023-05-16T05:55:28;11.13;;;2.03;;
20908;SDS011;10614;53.198;6.570;2023-05-16T05:57:31;12.02;;;2.17;;
20908;SDS011;10614;53.198;6.570;2023-05-16T05:59:38;14.18;;;2.17;;
20908;SDS011;10614;53.198;6.570;2023-05-16T06:01:40;11.98;;;2.45;;
20908;SDS011;10614;53.198;6.570;2023-05-16T06:03:43;15.82;;;3.47;;
20908;SDS011;10614;53.198;6.570;2023-05-16T06:05:46;16.30;;;2.40;;
20908;SDS011;10614;53.198;6.570;2023-05-16T06:07:48;11.60;;;2.85;;
20908;SDS011;10614;53.198;6.570;2023-05-16T06:09:49;13.95;;;2.28;;
20908;SDS011;10614;53.198;6.570;2023-05-16T06:11:51;17.60;;;2.25;;
20908;SDS011;10614;53.198;6.570;2023-05-16T06:13:53;13.95;;;2.00;;
20908;SDS011;10614;53.198;6.570;2023-05-16T06:15:55;9.35;;;2.17;;
20908;SDS011;10614;53.198;6.570;2023-05-16T06:17:57;14.80;;;2.03;;
20908;SDS011;10614;53.198;6.570;2023-05-16T06:19:59;12.02;;;1.90;;
20908;SDS011;10614;53.198;6.570;2023-05-16T06:22:03;16.30;;;2.47;;
20908;SDS011;10614;53.198;6.570;2023-05-16T06:24:05;10.95;;;2.17;;
20908;SDS011;10614;53.198;6.570;2023-05-16T06:26:08;12.77;;;2.03;;
20908;SDS011;10614;53.198;6.570;2023-05-16T06:28:10;9.48;;;1.70;;
20908;SDS011;10614;53.198;6.570;2023-05-16T06:30:12;14.32;;;2.60;;
20908;SDS011;10614;53.198;6.570;2023-05-16T06:32:14;7.53;;;1.33;;
20908;SDS011;10614;53.198;6.570;2023-05-16T06:34:15;7.68;;;1.35;;
20908;SDS011;10614;53.198;6.570;2023-05-16T06:36:17;13.70;;;1.98;;
20908;SDS011;10614;53.198;6.570;2023-05-16T06:38:21;9.07;;;1.50;;
20908;SDS011;10614;53.198;6.570;2023-05-16T06:40:22;8.52;;;1.60;;
20908;SDS011;10614;53.198;6.570;2023-05-16T06:42:24;10.73;;;2.17;;
20908;SDS011;10614;53.198;6.570;2023-05-16T06:44:26;10.13;;;1.90;;
20908;SDS011;10614;53.198;6.570;2023-05-16T06:46:28;9.70;;;1.52;;
20908;SDS011;10614;53.198;6.570;2023-05-16T06:48:29;11.30;;;1.98;;
20908;SDS011;10614;53.198;6.570;2023-05-16T06:50:32;11.68;;;1.80;;
20908;SDS011;10614;53.198;6.570;2023-05-16T06:52:34;9.77;;;1.75;;
20908;SDS011;10614;53.198;6.570;2023-05-16T06:54:38;12.30;;;1.80;;
20908;SDS011;10614;53.198;6.570;2023-05-16T06:56:40;12.82;;;2.10;;
20908;SDS011;10614;53.198;6.570;2023-05-16T06:58:42;10.10;;;1.70;;
20908;SDS011;10614;53.198;6.570;2023-05-16T07:00:44;8.13;;;1.50;;
20908;SDS011;10614;53.198;6.570;2023-05-16T07:02:45;8.32;;;1.42;;
20908;SDS011;10614;53.198;6.570;2023-05-16T07:04:47;9.05;;;1.58;;
20908;SDS011;10614;53.198;6.570;2023-05-16T07:06:49;5.13;;;1.02;;
20908;SDS011;10614;53.198;6.570;2023-05-16T07:08:52;9.35;;;1.50;;
20908;SDS011;10614;53.198;6.570;2023-05-16T07:10:55;9.95;;;1.55;;
20908;SDS011;10614;53.198;6.570;2023-05-16T07:12:57;8.85;;;1.65;;
20908;SDS011;10614;53.198;6.570;2023-05-16T07:15:00;11.43;;;1.83;;
20908;SDS011;10614;53.198;6.570;2023-05-16T07:17:02;12.23;;;2.10;;
20908;SDS011;10614;53.198;6.570;2023-05-16T07:19:04;8.02;;;2.05;;
20908;SDS011;10614;53.198;6.570;2023-05-16T07:21:07;12.38;;;2.28;;
20908;SDS011;10614;53.198;6.570;2023-05-16T07:23:08;11.50;;;2.00;;
20908;SDS011;10614;53.198;6.570;2023-05-16T07:25:10;11.63;;;1.52;;
20908;SDS011;10614;53.198;6.570;2023-05-16T07:27:14;10.80;;;1.92;;
20908;SDS011;10614;53.198;6.570;2023-05-16T07:29:16;13.20;;;1.83;;
20908;SDS011;10614;53.198;6.570;2023-05-16T07:31:18;14.45;;;2.42;;
20908;SDS011;10614;53.198;6.570;2023-05-16T07:33:20;15.07;;;2.00;;
20908;SDS011;10614;53.198;6.570;2023-05-16T07:35:22;12.07;;;2.30;;
20908;SDS011;10614;53.198;6.570;2023-05-16T07:37:24;13.75;;;2.20;;
20908;SDS011;10614;53.198;6.570;2023-05-16T07:39:26;9.52;;;1.88;;
20908;SDS011;10614;53.198;6.570;2023-05-16T07:41:28;11.13;;;2.15;;
20908;SDS011;10614;53.198;6.570;2023-05-16T07:43:31;18.23;;;2.35;;
20908;SDS011;10614;53.198;6.570;2023-05-16T07:45:35;12.70;;;1.95;;
20908;SDS011;10614;53.198;6.570;2023-05-16T07:47:38;10.82;;;2.03;;
20908;SDS011;10614;53.198;6.570;2023-05-16T07:49:40;13.00;;;2.08;;
20908;SDS011;10614;53.198;6.570;2023-05-16T07:51:42;9.23;;;2.05;;
20908;SDS011;10614;53.198;6.570;2023-05-16T07:53:44;12.25;;;2.00;;
20908;SDS011;10614;53.198;6.570;2023-05-16T07:55:46;15.02;;;2.25;;
20908;SDS011;10614;53.198;6.570;2023-05-16T07:57:48;15.50;;;2.10;;
20908;SDS011;10614;53.198;6.570;2023-05-16T07:59:51;9.43;;;2.03;;
20908;SDS011;10614;53.198;6.570;2023-05-16T08:01:53;13.05;;;2.10;;
20908;SDS011;10614;53.198;6.570;2023-05-16T08:03:55;10.27;;;2.20;;
20908;SDS011;10614;53.198;6.570;2023-05-16T08:05:58;11.85;;;2.38;;
20908;SDS011;10614;53.198;6.570;2023-05-16T08:08:01;14.48;;;1.83;;
20908;SDS011;10614;53.198;6.570;2023-05-16T08:10:04;9.10;;;1.80;;
20908;SDS011;10614;53.198;6.570;2023-05-16T08:12:07;12.02;;;1.75;;
20908;SDS011;10614;53.198;6.570;2023-05-16T08:14:09;13.15;;;2.60;;
20908;SDS011;10614;53.198;6.570;2023-05-16T08:16:13;12.77;;;2.00;;
20908;SDS011;10614;53.198;6.570;2023-05-16T08:18:15;7.50;;;1.92;;
20908;SDS011;10614;53.198;6.570;2023-05-16T08:20:17;4.93;;;1.10;;
20908;SDS011;10614;53.198;6.570;2023-05-16T08:22:19;9.95;;;1.27;;
20908;SDS011;10614;53.198;6.570;2023-05-16T08:24:20;6.55;;;1.13;;
20908;SDS011;10614;53.198;6.570;2023-05-16T08:26:22;8.73;;;1.13;;
20908;SDS011;10614;53.198;6.570;2023-05-16T08:28:24;7.15;;;1.58;;
20908;SDS011;10614;53.198;6.570;2023-05-16T08:30:26;19.55;;;2.05;;
20908;SDS011;10614;53.198;6.570;2023-05-16T08:32:30;9.32;;;2.03;;
20908;SDS011;10614;53.198;6.570;2023-05-16T08:34:32;11.20;;;2.28;;
20908;SDS011;10614;53.198;6.570;2023-05-16T08:36:34;12.48;;;1.92;;
20908;SDS011;10614;53.198;6.570;2023-05-16T08:38:36;14.45;;;2.25;;
20908;SDS011;10614;53.198;6.570;2023-05-16T08:40:38;14.63;;;2.38;;
20908;SDS011;10614;53.198;6.570;2023-05-16T08:42:41;10.73;;;2.00;;
20908;SDS011;10614;53.198;6.570;2023-05-16T08:44:43;10.43;;;2.03;;
20908;SDS011;10614;53.198;6.570;2023-05-16T08:46:46;16.45;;;3.13;;
20908;SDS011;10614;53.198;6.570;2023-05-16T08:48:53;13.80;;;2.58;;
20908;SDS011;10614;53.198;6.570;2023-05-16T08:50:59;13.85;;;2.17;;
20908;SDS011;10614;53.198;6.570;2023-05-16T08:53:03;11.57;;;1.98;;
20908;SDS011;10614;53.198;6.570;2023-05-16T08:55:07;9.18;;;1.88;;
20908;SDS011;10614;53.198;6.570;2023-05-16T08:57:11;17.10;;;2.42;;
20908;SDS011;10614;53.198;6.570;2023-05-16T08:59:14;9.55;;;2.20;;
20908;SDS011;10614;53.198;6.570;2023-05-16T09:01:17;16.05;;;2.30;;
20908;SDS011;10614;53.198;6.570;2023-05-16T09:03:19;11.18;;;1.95;;
20908;SDS011;10614;53.198;6.570;2023-05-16T09:05:25;16.38;;;2.42;;
20908;SDS011;10614;53.198;6.570;2023-05-16T09:07:29;9.10;;;2.00;;
20908;SDS011;10614;53.198;6.570;2023-05-16T09:09:31;14.55;;;2.22;;
20908;SDS011;10614;53.198;6.570;2023-05-16T09:11:33;13.30;;;2.03;;
20908;SDS011;10614;53.198;6.570;2023-05-16T09:13:36;11.60;;;1.63;;
20908;SDS011;10614;53.198;6.570;2023-05-16T09:15:40;12.45;;;1.65;;
20908;SDS011;10614;53.198;6.570;2023-05-16T09:17:42;10.95;;;1.60;;
20908;SDS011;10614;53.198;6.570;2023-05-16T09:19:45;10.15;;;1.77;;
20908;SDS011;10614;53.198;6.570;2023-05-16T09:21:51;9.30;;;2.28;;
20908;SDS011;10614;53.198;6.570;2023-05-16T09:23:53;10.38;;;2.10;;
20908;SDS011;10614;53.198;6.570;2023-05-16T09:25:56;11.52;;;2.10;;
20908;SDS011;10614;53.198;6.570;2023-05-16T09:27:59;9.25;;;1.83;;
20908;SDS011;10614;53.198;6.570;2023-05-16T09:30:02;8.98;;;2.15;;
20908;SDS011;10614;53.198;6.570;2023-05-16T09:32:08;10.65;;;1.67;;
20908;SDS011;10614;53.198;6.570;2023-05-16T09:34:11;12.68;;;1.85;;
20908;SDS011;10614;53.198;6.570;2023-05-16T09:36:13;8.73;;;1.60;;
20908;SDS011;10614;53.198;6.570;2023-05-16T09:38:17;12.80;;;2.22;;
20908;SDS011;10614;53.198;6.570;2023-05-16T09:40:19;12.15;;;2.05;;
20908;SDS011;10614;53.198;6.570;2023-05-16T09:42:22;10.52;;;1.70;;
20908;SDS011;10614;53.198;6.570;2023-05-16T09:44:25;12.75;;;2.00;;
20908;SDS011;10614;53.198;6.570;2023-05-16T09:46:27;7.97;;;2.17;;
20908;SDS011;10614;53.198;6.570;2023-05-16T09:48:29;13.30;;;2.22;;
20908;SDS011;10614;53.198;6.570;2023-05-16T09:50:33;12.02;;;2.13;;
20908;SDS011;10614;53.198;6.570;2023-05-16T09:54:41;13.23;;;2.75;;
20908;SDS011;10614;53.198;6.570;2023-05-16T09:56:49;14.00;;;1.90;;
20908;SDS011;10614;53.198;6.570;2023-05-16T09:58:51;16.35;;;2.17;;
20908;SDS011;10614;53.198;6.570;2023-05-16T10:00:53;10.88;;;1.85;;
20908;SDS011;10614;53.198;6.570;2023-05-16T10:02:58;13.15;;;2.42;;
20908;SDS011;10614;53.198;6.570;2023-05-16T10:05:02;12.00;;;2.67;;
20908;SDS011;10614;53.198;6.570;2023-05-16T10:07:04;9.77;;;1.75;;
20908;SDS011;10614;53.198;6.570;2023-05-16T10:09:09;16.05;;;2.17;;
20908;SDS011;10614;53.198;6.570;2023-05-16T10:11:14;14.40;;;2.03;;
20908;SDS011;10614;53.198;6.570;2023-05-16T10:13:19;13.85;;;2.05;;
20908;SDS011;10614;53.198;6.570;2023-05-16T10:15:23;14.63;;;1.73;;
20908;SDS011;10614;53.198;6.570;2023-05-16T10:17:26;9.27;;;1.98;;
20908;SDS011;10614;53.198;6.570;2023-05-16T10:19:31;8.00;;;1.88;;
20908;SDS011;10614;53.198;6.570;2023-05-16T10:21:36;8.43;;;1.65;;
20908;SDS011;10614;53.198;6.570;2023-05-16T10:23:41;13.05;;;1.80;;
20908;SDS011;10614;53.198;6.570;2023-05-16T10:25:44;8.52;;;1.70;;
20908;SDS011;10614;53.198;6.570;2023-05-16T10:27:48;9.55;;;2.05;;
20908;SDS011;10614;53.198;6.570;2023-05-16T10:29:51;13.52;;;2.03;;
20908;SDS011;10614;53.198;6.570;2023-05-16T10:31:54;16.27;;;2.40;;
20908;SDS011;10614;53.198;6.570;2023-05-16T10:33:56;12.48;;;1.98;;
20908;SDS011;10614;53.198;6.570;2023-05-16T10:36:00;12.10;;;1.88;;
20908;SDS011;10614;53.198;6.570;2023-05-16T10:38:04;12.38;;;2.08;;
20908;SDS011;10614;53.198;6.570;2023-05-16T10:40:08;11.15;;;1.70;;
20908;SDS011;10614;53.198;6.570;2023-05-16T10:42:11;12.35;;;2.50;;
20908;SDS011;10614;53.198;6.570;2023-05-16T10:44:22;14.13;;;1.67;;
20908;SDS011;10614;53.198;6.570;2023-05-16T10:46:25;13.13;;;1.92;;
20908;SDS011;10614;53.198;6.570;2023-05-16T10:48:28;10.88;;;1.70;;
20908;SDS011;10614;53.198;6.570;2023-05-16T10:50:32;11.05;;;1.88;;
20908;SDS011;10614;53.198;6.570;2023-05-16T10:52:35;10.23;;;1.85;;
20908;SDS011;10614;53.198;6.570;2023-05-16T10:54:37;11.60;;;1.95;;
20908;SDS011;10614;53.198;6.570;2023-05-16T10:56:40;10.98;;;1.75;;
20908;SDS011;10614;53.198;6.570;2023-05-16T10:58:46;10.13;;;1.83;;
20908;SDS011;10614;53.198;6.570;2023-05-16T11:00:50;20.40;;;2.17;;
20908;SDS011;10614;53.198;6.570;2023-05-16T11:03:21;8.70;;;1.30;;
20908;SDS011;10614;53.198;6.570;2023-05-16T11:05:27;10.68;;;1.95;;
20908;SDS011;10614;53.198;6.570;2023-05-16T11:07:31;8.70;;;2.17;;
20908;SDS011;10614;53.198;6.570;2023-05-16T11:09:34;13.55;;;1.80;;
20908;SDS011;10614;53.198;6.570;2023-05-16T11:11:42;10.48;;;1.60;;
20908;SDS011;10614;53.198;6.570;2023-05-16T11:13:52;13.82;;;1.90;;
20908;SDS011;10614;53.198;6.570;2023-05-16T11:18:31;10.70;;;2.03;;
20908;SDS011;10614;53.198;6.570;2023-05-16T11:20:33;12.23;;;1.63;;
20908;SDS011;10614;53.198;6.570;2023-05-16T11:22:37;7.60;;;1.30;;
20908;SDS011;10614;53.198;6.570;2023-05-16T11:24:47;8.68;;;1.92;;
20908;SDS011;10614;53.198;6.570;2023-05-16T11:26:52;11.57;;;1.98;;
20908;SDS011;10614;53.198;6.570;2023-05-16T11:28:54;10.52;;;2.15;;
20908;SDS011;10614;53.198;6.570;2023-05-16T11:30:58;8.60;;;1.70;;
20908;SDS011;10614;53.198;6.570;2023-05-16T11:33:04;8.00;;;1.42;;
20908;SDS011;10614;53.198;6.570;2023-05-16T11:35:08;11.57;;;2.03;;
20908;SDS011;10614;53.198;6.570;2023-05-16T11:37:11;9.48;;;2.20;;
20908;SDS011;10614;53.198;6.570;2023-05-16T11:39:14;15.00;;;2.28;;
20908;SDS011;10614;53.198;6.570;2023-05-16T11:41:15;9.75;;;2.45;;
20908;SDS011;10614;53.198;6.570;2023-05-16T11:43:20;9.73;;;2.72;;
20908;SDS011;10614;53.198;6.570;2023-05-16T11:45:21;15.98;;;2.25;;
20908;SDS011;10614;53.198;6.570;2023-05-16T11:47:24;16.80;;;3.22;;
20908;SDS011;10614;53.198;6.570;2023-05-16T11:49:30;13.75;;;2.58;;
20908;SDS011;10614;53.198;6.570;2023-05-16T11:51:32;13.15;;;2.42;;
20908;SDS011;10614;53.198;6.570;2023-05-16T11:53:36;14.43;;;2.28;;
20908;SDS011;10614;53.198;6.570;2023-05-16T11:55:38;14.45;;;2.25;;
20908;SDS011;10614;53.198;6.570;2023-05-16T11:57:41;16.17;;;2.65;;
20908;SDS011;10614;53.198;6.570;2023-05-16T11:59:44;16.05;;;2.47;;
20908;SDS011;10614;53.198;6.570;2023-05-16T12:01:46;9.48;;;1.98;;
20908;SDS011;10614;53.198;6.570;2023-05-16T12:03:58;10.85;;;2.78;;
20908;SDS011;10614;53.198;6.570;2023-05-16T12:06:01;12.07;;;2.95;;
20908;SDS011;10614;53.198;6.570;2023-05-16T12:08:03;13.52;;;2.67;;
20908;SDS011;10614;53.198;6.570;2023-05-16T12:10:06;9.48;;;2.58;;
20908;SDS011;10614;53.198;6.570;2023-05-16T12:12:09;10.15;;;2.78;;
20908;SDS011;10614;53.198;6.570;2023-05-16T12:14:11;17.63;;;3.10;;
20908;SDS011;10614;53.198;6.570;2023-05-16T12:16:14;21.38;;;3.17;;
20908;SDS011;10614;53.198;6.570;2023-05-16T12:18:16;20.25;;;4.82;;